Weather reports worldwide

Advertisment
Lampedusa, Italy (16490): temperature & dewpoint: 15.01.2018 04:00:00 - 21.01.2018 04:00:00 (CET)Lampedusa, Italy (16490): wind speed: 15.01.2018 04:00:00 - 21.01.2018 04:00:00 (CET)Lampedusa, Italy (16490): wind direction: 15.01.2018 04:00:00 - 21.01.2018 04:00:00 (CET)Lampedusa, Italy (16490): visibility: 15.01.2018 04:00:00 - 21.01.2018 04:00:00 (CET)
Date & Time tt [°C] td [°C] ff [km/h] ff [kn] dd vv [km]
21.01.2018 04:00:00 - - - - - -
21.01.2018 03:00:00 - - - - - -
21.01.2018 02:00:00 - - - - - -
21.01.2018 01:00:00 - - - - - -
21.01.2018 00:00:00 - - - - - -
20.01.2018 23:00:00 - - - - - -
20.01.2018 22:00:00 14,0 7,0 29 16 NNW 10
20.01.2018 21:00:00 14,0 7,0 29 16 NNW 10
20.01.2018 20:00:00 14,0 9,0 34 18 NNW 10
20.01.2018 19:00:00 15,0 5,0 41 22 N 10
20.01.2018 18:00:00 15,0 9,0 42 23 N 10
20.01.2018 17:00:00 15,0 11,0 34 18 N 10
20.01.2018 16:00:00 15,0 11,0 29 16 N 10
20.01.2018 15:00:00 15,0 11,0 22 12 N 10
20.01.2018 14:00:00 15,0 10,0 24 13 N 10
20.01.2018 13:00:00 15,0 10,0 29 16 N 10
20.01.2018 12:00:00 15,0 10,0 24 13 N 10
20.01.2018 11:00:00 - - - - - -
20.01.2018 10:00:00 15,0 10,0 24 13 N 10
20.01.2018 09:00:00 14,0 10,0 31 17 N 10
20.01.2018 08:00:00 14,0 10,0 31 17 NNE 10
20.01.2018 07:00:00 14,0 10,0 24 13 N 10
20.01.2018 06:00:00 14,0 10,0 18 10 N 10
20.01.2018 05:00:00 - - - - - -
20.01.2018 04:00:00 - - - - - -
20.01.2018 03:00:00 - - - - - -
20.01.2018 02:00:00 - - - - - -
20.01.2018 01:00:00 - - - - - -
20.01.2018 00:00:00 - - - - - -
19.01.2018 23:00:00 - - - - - -
19.01.2018 22:00:00 15,0 10,0 13 7 SSE 10
19.01.2018 21:00:00 14,0 10,0 15 8 SSE 10
19.01.2018 20:00:00 14,0 10,0 13 7 SSE 10
19.01.2018 19:00:00 14,0 10,0 11 6 S 10
19.01.2018 18:00:00 14,0 9,0 9 5 S 10
19.01.2018 17:00:00 14,0 9,0 11 6 SSE 10
19.01.2018 16:00:00 15,0 9,0 15 8 S 10
19.01.2018 15:00:00 15,0 9,0 18 10 S 10
19.01.2018 14:00:00 15,0 9,0 18 10 S 10
19.01.2018 13:00:00 15,0 9,0 15 8 SSW 10
19.01.2018 12:00:00 15,0 9,0 16 9 S 10
19.01.2018 11:00:00 15,0 9,0 16 9 SSW 10
19.01.2018 10:00:00 15,0 8,0 15 8 S 10
19.01.2018 09:00:00 13,0 8,0 9 5 SW 10
19.01.2018 08:00:00 13,0 8,0 9 5 SW 10
19.01.2018 07:00:00 13,0 8,0 11 6 SSW 10
19.01.2018 06:00:00 13,0 8,0 11 6 SSW 10
19.01.2018 05:00:00 - - - - - -
19.01.2018 04:00:00 - - - - - -
19.01.2018 03:00:00 - - - - - -
19.01.2018 02:00:00 - - - - - -
19.01.2018 01:00:00 - - - - - -
19.01.2018 00:00:00 - - - - - -
18.01.2018 23:00:00 - - - - - -
18.01.2018 22:00:00 12,0 6,0 5 3 W 10
18.01.2018 21:00:00 12,0 6,0 5 3 W 10
18.01.2018 20:00:00 12,0 6,0 8 4 WNW 10
18.01.2018 19:00:00 13,0 7,0 5 3 W 10
18.01.2018 18:00:00 14,0 7,0 9 5 NW 10
18.01.2018 17:00:00 14,0 6,0 8 4 NNW 10
18.01.2018 16:00:00 15,0 5,0 9 5 NNW 10
18.01.2018 15:00:00 15,0 6,0 16 9 N 10
18.01.2018 14:00:00 15,0 5,0 15 8 NNW 10
18.01.2018 13:00:00 15,0 5,0 15 8 NNW 10
18.01.2018 12:00:00 15,0 4,0 18 10 N 10
18.01.2018 11:00:00 15,0 6,0 18 10 N 10
18.01.2018 10:00:00 15,0 5,0 22 12 NNW 10
18.01.2018 09:00:00 14,0 5,0 21 11 NNW 10
18.01.2018 08:00:00 14,0 5,0 22 12 NNW 10
18.01.2018 07:00:00 14,0 5,0 26 14 NNW 10
18.01.2018 06:00:00 14,0 5,0 29 16 NNW 10
18.01.2018 05:00:00 - - - - - -
18.01.2018 04:00:00 - - - - - -
18.01.2018 03:00:00 - - - - - -
18.01.2018 02:00:00 - - - - - -
18.01.2018 01:00:00 - - - - - -
18.01.2018 00:00:00 - - - - - -
17.01.2018 23:00:00 - - - - - -
17.01.2018 22:00:00 15,0 12,0 24 13 WNW 10
17.01.2018 21:00:00 16,0 10,0 39 21 NW 10
17.01.2018 20:00:00 16,0 10,0 39 21 NW 10
17.01.2018 19:00:00 16,0 11,0 24 13 NW 10
17.01.2018 18:00:00 16,0 9,0 16 9 NW 10
17.01.2018 17:00:00 16,0 10,0 21 11 W 10
17.01.2018 16:00:00 17,0 9,0 24 13 W 10
17.01.2018 15:00:00 17,0 10,0 22 12 W 10
17.01.2018 14:00:00 16,0 11,0 22 12 W 10
17.01.2018 13:00:00 16,0 10,0 26 14 W 10
17.01.2018 12:00:00 16,0 10,0 21 11 WSW 10
17.01.2018 11:00:00 16,0 9,0 24 13 W 10
17.01.2018 10:00:00 16,0 10,0 22 12 W 10
17.01.2018 09:00:00 15,0 10,0 26 14 W 10
17.01.2018 08:00:00 14,0 10,0 22 12 WSW 10
17.01.2018 07:00:00 14,0 10,0 22 12 WSW 10
17.01.2018 06:00:00 14,0 10,0 22 12 WSW 10
17.01.2018 05:00:00 - - - - - -
17.01.2018 04:00:00 - - - - - -
17.01.2018 03:00:00 - - - - - -
17.01.2018 02:00:00 - - - - - -
17.01.2018 01:00:00 - - - - - -
17.01.2018 00:00:00 - - - - - -
16.01.2018 23:00:00 - - - - - -
16.01.2018 22:00:00 14,0 10,0 18 10 WSW 10
16.01.2018 21:00:00 14,0 10,0 16 9 WSW 10
16.01.2018 20:00:00 14,0 10,0 16 9 WSW 10
16.01.2018 19:00:00 14,0 10,0 18 10 W 10
16.01.2018 18:00:00 14,0 10,0 16 9 W 10
16.01.2018 17:00:00 15,0 11,0 16 9 W 10
16.01.2018 16:00:00 16,0 10,0 15 8 WNW 10
16.01.2018 15:00:00 16,0 10,0 15 8 WNW 10
16.01.2018 14:00:00 16,0 10,0 18 10 WNW 10
16.01.2018 13:00:00 16,0 9,0 21 11 NW 10
16.01.2018 12:00:00 16,0 9,0 22 12 NW 10
16.01.2018 11:00:00 16,0 8,0 16 9 WNW 10
16.01.2018 10:00:00 15,0 8,0 11 6 W 10
16.01.2018 09:00:00 13,0 8,0 8 4 WNW 10
16.01.2018 08:00:00 12,0 8,0 9 5 W 10
16.01.2018 07:00:00 11,0 7,0 11 6 WNW 10
16.01.2018 06:00:00 11,0 6,0 13 7 WNW 10
16.01.2018 05:00:00 - - - - - -
16.01.2018 04:00:00 - - - - - -
16.01.2018 03:00:00 - - - - - -
16.01.2018 02:00:00 - - - - - -
16.01.2018 01:00:00 - - - - - -
16.01.2018 00:00:00 - - - - - -
15.01.2018 23:00:00 - - - - - -
15.01.2018 22:00:00 13,0 8,0 5 3 NNW 10
15.01.2018 21:00:00 14,0 8,0 5 3 NW 10
15.01.2018 20:00:00 14,0 8,0 8 4 NW 10
15.01.2018 19:00:00 14,0 8,0 4 2 NNW 10
15.01.2018 18:00:00 14,0 8,0 2 1 NW 10
15.01.2018 17:00:00 15,0 8,0 4 2 WNW 10
15.01.2018 16:00:00 15,0 9,0 8 4 W 10
15.01.2018 15:00:00 15,0 7,0 9 5 W 10
15.01.2018 14:00:00 16,0 7,0 11 6 SW 10
15.01.2018 13:00:00 16,0 6,0 9 5 SW 10
15.01.2018 12:00:00 16,0 6,0 9 5 SSW 10
15.01.2018 11:00:00 15,0 6,0 9 5 SSW 10
15.01.2018 10:00:00 15,0 6,0 5 3 SW 10
15.01.2018 09:00:00 14,0 6,0 4 2 WSW 10
15.01.2018 08:00:00 14,0 6,0 8 4 SW 10
15.01.2018 07:00:00 14,0 5,0 9 5 WSW 10
15.01.2018 06:00:00 14,0 6,0 13 7 WSW 10
15.01.2018 05:00:00 - - - - - -
15.01.2018 04:00:00 - - - - - -

tt = temperature
td = dewpoint
ff = wind speed
dd = wind direction
vv = visibility

Next stations